Team Avatar Team 3189 - Circuit Breakers (2018)


2018 Home Championship: FIRST Championship - Houston
2018 Sponsors: The Brin Wojcicki Foundation/El Dorado Community Foundation/Micron Foundation/Aerojet/Rocketdyne Foundation/Sierra Pacific Foundation/El Dorado Union High School District/Pumpkin Space Systems/Custom Embroidery Concepts/Kinetic Machining Services/Patricia Ferrell&Union Mine High&El Dorado High&Ponderosa High&Oak Ridge High&Virtual Academy


This tab displays only official event's that Team 3189 attended in 2018.
Team 3189 had a record of 6-14-0 (W-L-T) at their 2 official events (this includes a Qualification record of 6 - 14 - 0 (W-L-T) and Playoff record of 0 - 0)

Sacramento Regional

  March 21 to March 24, 2018

Qualification Matches
Rank: 63 of 65
Record: 1 Wins, 7 Losses and 0 Ties - 8 Matches Played (0 Disqualifications)

Match Start Time Red 1 Red 2 Red 3 Blue 1 Blue 2 Blue 3 Red Final Blue Final
Qualification 9   Fri 3/23 - 10:20 AM 5458 3189 2085 2035 1678 1280 76 442
Qualification 19   Fri 3/23 - 12:01 PM 2204 7229 6305 6619 3189 3303 269 151
Qualification 31   Fri 3/23 - 1:40 PM 3257 100 3189 1671 5507 6644 261 262
Qualification 37   Fri 3/23 - 2:27 PM 6039 1323 3189 692 2073 3250 369 264
Qualification 50   Fri 3/23 - 4:10 PM 2367 5940 3189 3859 1072 6174 116 401
Qualification 62   Fri 3/23 - 5:36 PM 2141 3615 295 3189 3880 6238 310 282
Qualification 69   Sat 3/24 - 9:42 AM 3970 199 6612 3189 981 5250 292 265
Qualification 79   Sat 3/24 - 11:25 AM 2144 5496 3598 6474 3189 7057 256 249
Playoff Matches

Central Valley Regional

  April 5 to April 8, 2018

Qualification Matches
Rank: 28 of 47
Record: 5 Wins, 7 Losses and 0 Ties - 12 Matches Played (0 Disqualifications)

Match Start Time Red 1 Red 2 Red 3 Blue 1 Blue 2 Blue 3 Red Final Blue Final
Qualification 2   Sat 4/7 - 9:29 AM 5104 2813 2085 2643 3189 692 345 337
Qualification 9   Sat 4/7 - 10:27 AM 5700 692 6804 6711 3189 6657 322 240
Qualification 22   Sat 4/7 - 12:11 PM 1197 3859 3189 1422 6711 2443 431 88
Qualification 26   Sat 4/7 - 12:37 PM 3045 5134 972 5852 5700 3189 264 322
Qualification 33   Sat 4/7 - 1:50 PM 5274 7096 3189 2854 3495 4698 138 452
Qualification 42   Sat 4/7 - 2:56 PM 3189 649 696 6699 1388 6506 355 197
Qualification 49   Sat 4/7 - 3:39 PM 3189 5817 1671 1538 2085 1678 199 468
Qualification 56   Sat 4/7 - 4:20 PM 1538 3189 299 7096 6711 649 462 39
Qualification 67   Sat 4/7 - 5:51 PM 5134 696 766 3189 4201 7057 306 353
Qualification 78   Sun 4/8 - 9:59 AM 3189 1662 6699 5134 5274 3970 213 368
Qualification 82   Sun 4/8 - 10:30 AM 6926 1662 3303 766 3189 1422 309 266
Qualification 88   Sun 4/8 - 11:15 AM 5026 6926 3189 4201 299 1197 297 415
Playoff Matches

Loading match videos… please wait a moment

Loading...

Sacramento Regional

  March 21 to March 24, 2018

Qualification Matches
Rank: 63 of 65
Record: 1 Wins, 7 Losses and 0 Ties - 8 Matches Played (0 Disqualifications)

Match Start Time Red 1 Red 2 Red 3 Blue 1 Blue 2 Blue 3 Red Final Blue Final
Qualification 9   Fri 3/23 - 10:20 AM 5458 3189 2085 2035 1678 1280 76 442
Qualification 19   Fri 3/23 - 12:01 PM 2204 7229 6305 6619 3189 3303 269 151
Qualification 31   Fri 3/23 - 1:40 PM 3257 100 3189 1671 5507 6644 261 262
Qualification 37   Fri 3/23 - 2:27 PM 6039 1323 3189 692 2073 3250 369 264
Qualification 50   Fri 3/23 - 4:10 PM 2367 5940 3189 3859 1072 6174 116 401
Qualification 62   Fri 3/23 - 5:36 PM 2141 3615 295 3189 3880 6238 310 282
Qualification 69   Sat 3/24 - 9:42 AM 3970 199 6612 3189 981 5250 292 265
Qualification 79   Sat 3/24 - 11:25 AM 2144 5496 3598 6474 3189 7057 256 249
Playoff Matches

Central Valley Regional

  April 5 to April 8, 2018

Qualification Matches
Rank: 28 of 47
Record: 5 Wins, 7 Losses and 0 Ties - 12 Matches Played (0 Disqualifications)

Match Start Time Red 1 Red 2 Red 3 Blue 1 Blue 2 Blue 3 Red Final Blue Final
Qualification 2   Sat 4/7 - 9:29 AM 5104 2813 2085 2643 3189 692 345 337
Qualification 9   Sat 4/7 - 10:27 AM 5700 692 6804 6711 3189 6657 322 240
Qualification 22   Sat 4/7 - 12:11 PM 1197 3859 3189 1422 6711 2443 431 88
Qualification 26   Sat 4/7 - 12:37 PM 3045 5134 972 5852 5700 3189 264 322
Qualification 33   Sat 4/7 - 1:50 PM 5274 7096 3189 2854 3495 4698 138 452
Qualification 42   Sat 4/7 - 2:56 PM 3189 649 696 6699 1388 6506 355 197
Qualification 49   Sat 4/7 - 3:39 PM 3189 5817 1671 1538 2085 1678 199 468
Qualification 56   Sat 4/7 - 4:20 PM 1538 3189 299 7096 6711 649 462 39
Qualification 67   Sat 4/7 - 5:51 PM 5134 696 766 3189 4201 7057 306 353
Qualification 78   Sun 4/8 - 9:59 AM 3189 1662 6699 5134 5274 3970 213 368
Qualification 82   Sun 4/8 - 10:30 AM 6926 1662 3303 766 3189 1422 309 266
Qualification 88   Sun 4/8 - 11:15 AM 5026 6926 3189 4201 299 1197 297 415
Playoff Matches